createdAt,value
2018-12-26T00:04:44.404Z,3.65
2018-12-26T00:09:46.458Z,3.68
2018-12-26T00:14:48.505Z,3.67
2018-12-26T00:19:50.672Z,3.64
2018-12-26T00:24:52.806Z,3.64
2018-12-26T00:29:54.861Z,3.67
2018-12-26T00:34:56.943Z,3.69
2018-12-26T00:39:59.001Z,3.68
2018-12-26T00:45:01.059Z,3.63
2018-12-26T00:50:04.154Z,3.65
2018-12-26T00:55:06.260Z,3.63
2018-12-26T01:00:08.523Z,3.59
2018-12-26T01:05:10.595Z,3.64
2018-12-26T01:10:12.641Z,3.55
2018-12-26T01:15:14.701Z,3.57
2018-12-26T01:20:16.850Z,3.52
2018-12-26T01:25:19.002Z,3.48
2018-12-26T01:30:21.061Z,3.44
2018-12-26T01:35:24.235Z,3.49
2018-12-26T01:40:26.289Z,3.40
2018-12-26T01:45:28.354Z,3.39
2018-12-26T01:50:30.426Z,3.34
2018-12-26T01:55:32.610Z,3.34
2018-12-26T02:00:34.674Z,3.29
2018-12-26T02:05:36.744Z,3.28
2018-12-26T02:10:38.802Z,3.22
2018-12-26T02:15:40.867Z,3.20
2018-12-26T02:20:42.919Z,3.16
2018-12-26T02:25:45.045Z,3.16
2018-12-26T02:30:47.118Z,3.13
2018-12-26T02:35:49.485Z,3.08
2018-12-26T02:40:51.547Z,3.08
2018-12-26T02:45:53.615Z,3.03
2018-12-26T02:50:55.694Z,3.00
2018-12-26T02:55:57.813Z,2.96
2018-12-26T03:00:59.967Z,2.97
2018-12-26T03:06:02.033Z,2.92
2018-12-26T03:11:04.288Z,2.90
2018-12-26T03:16:06.363Z,2.86
2018-12-26T03:21:08.571Z,2.83
2018-12-26T03:26:10.795Z,2.82
2018-12-26T03:31:12.878Z,2.74
2018-12-26T03:36:16.062Z,2.72
2018-12-26T03:41:18.426Z,2.68
2018-12-26T03:46:20.512Z,2.65
2018-12-26T03:51:22.830Z,2.59
2018-12-26T03:56:25.047Z,2.64
2018-12-26T04:01:27.179Z,2.50
2018-12-26T04:06:29.249Z,2.46
2018-12-26T04:11:31.316Z,2.34
2018-12-26T04:16:33.382Z,2.40
2018-12-26T04:21:35.451Z,2.39
2018-12-26T04:26:37.763Z,2.38
2018-12-26T04:31:40.153Z,2.42
2018-12-26T04:36:42.177Z,2.35
2018-12-26T04:41:44.389Z,2.34
2018-12-26T04:46:46.323Z,2.31
2018-12-26T04:51:48.279Z,2.32
2018-12-26T04:56:50.563Z,2.32
2018-12-26T05:01:53.557Z,2.15
2018-12-26T05:06:55.963Z,2.18
2018-12-26T05:11:58.367Z,2.19
2018-12-26T05:17:00.376Z,2.16
2018-12-26T05:22:02.388Z,2.10
2018-12-26T05:27:04.687Z,2.14
2018-12-26T05:32:06.983Z,2.04
2018-12-26T05:37:09.009Z,2.04
2018-12-26T05:42:11.021Z,2.02
2018-12-26T05:47:12.970Z,2.02
2018-12-26T05:52:14.890Z,2.02
2018-12-26T05:57:16.882Z,2.05
2018-12-26T06:02:18.825Z,2.06
2018-12-26T06:07:20.931Z,2.02
2018-12-26T06:12:24.682Z,2.07
2018-12-26T06:17:26.585Z,2.01
2018-12-26T06:22:28.406Z,2.00
2018-12-26T06:27:30.531Z,1.99
2018-12-26T06:32:32.467Z,2.03
2018-12-26T06:37:34.282Z,2.02
2018-12-26T06:42:36.093Z,1.98
2018-12-26T06:47:38.013Z,1.95
2018-12-26T06:52:40.053Z,1.96
2018-12-26T06:57:42.082Z,1.91
2018-12-26T07:02:44.128Z,1.92
2018-12-26T07:07:46.073Z,1.90
2018-12-26T07:12:47.978Z,1.89
2018-12-26T07:17:49.996Z,1.86
2018-12-26T07:22:51.815Z,1.86
2018-12-26T07:27:53.908Z,1.90
2018-12-26T07:32:55.925Z,1.85
2018-12-26T07:37:57.958Z,1.84
2018-12-26T07:43:00.992Z,1.85
2018-12-26T07:48:03.090Z,1.83
2018-12-26T07:53:05.155Z,1.80
2018-12-26T07:58:07.134Z,1.76
2018-12-26T08:03:09.170Z,1.74
2018-12-26T08:08:11.090Z,1.69
2018-12-26T08:13:13.017Z,1.63
2018-12-26T08:18:15.066Z,1.58
2018-12-26T08:23:17.262Z,1.57
2018-12-26T08:28:26.518Z,1.54
2018-12-26T08:33:24.107Z,1.51
2018-12-26T08:38:26.219Z,1.47
2018-12-26T08:43:28.054Z,1.43
2018-12-26T08:48:29.875Z,1.43
2018-12-26T08:53:31.792Z,1.44
2018-12-26T08:58:35.271Z,1.45
2018-12-26T09:03:37.450Z,1.48
2018-12-26T09:08:39.501Z,1.48
2018-12-26T09:13:41.448Z,1.54
2018-12-26T09:18:44.672Z,1.61
2018-12-26T09:23:46.774Z,1.62
2018-12-26T09:28:53.350Z,1.63
2018-12-26T09:33:57.429Z,1.65
2018-12-26T09:38:59.503Z,1.54
2018-12-26T09:44:01.505Z,1.43
2018-12-26T09:49:03.962Z,1.37
2018-12-26T09:54:06.186Z,1.36
2018-12-26T09:59:08.334Z,1.39
2018-12-26T10:04:10.226Z,1.43
2018-12-26T10:09:12.234Z,1.44
2018-12-26T10:14:14.026Z,1.53
2018-12-26T10:19:15.958Z,1.61
2018-12-26T10:24:18.089Z,1.77
2018-12-26T10:29:20.175Z,1.85
2018-12-26T10:34:22.170Z,1.94
2018-12-26T10:39:24.082Z,2.02
2018-12-26T10:44:26.082Z,2.14
2018-12-26T10:49:27.993Z,2.25
2018-12-26T10:54:29.989Z,2.33
2018-12-26T10:59:31.879Z,2.45
2018-12-26T11:04:33.820Z,2.59
2018-12-26T11:09:35.729Z,2.73
2018-12-26T11:14:37.858Z,2.89
2018-12-26T11:19:39.891Z,3.02
2018-12-26T11:24:42.101Z,3.11
2018-12-26T11:29:44.203Z,3.18
2018-12-26T11:34:46.101Z,3.08
2018-12-26T11:39:48.103Z,3.06
2018-12-26T11:44:50.102Z,3.01
2018-12-26T11:49:52.105Z,2.95
2018-12-26T11:54:54.115Z,2.88
2018-12-26T11:59:56.054Z,2.87
2018-12-26T12:04:58.056Z,2.90
2018-12-26T12:10:00.112Z,2.95
2018-12-26T12:15:02.458Z,2.92
2018-12-26T12:20:06.217Z,2.83
2018-12-26T12:25:08.375Z,2.81
2018-12-26T12:30:10.427Z,2.82
2018-12-26T12:35:12.426Z,2.86
2018-12-26T12:40:14.423Z,2.87
2018-12-26T12:45:16.423Z,2.92
2018-12-26T12:50:18.430Z,2.99
2018-12-26T12:55:20.501Z,3.00
2018-12-26T13:00:22.452Z,3.04
2018-12-26T13:05:24.438Z,3.05
2018-12-26T13:10:26.335Z,3.09
2018-12-26T13:15:28.328Z,3.09
2018-12-26T13:20:30.344Z,3.15
2018-12-26T13:25:32.707Z,3.20
2018-12-26T13:30:34.789Z,3.20
2018-12-26T13:35:36.789Z,3.18
2018-12-26T13:40:38.788Z,3.16
2018-12-26T13:45:40.793Z,3.20
2018-12-26T13:50:42.810Z,3.24
2018-12-26T13:55:44.818Z,3.26
2018-12-26T14:00:46.922Z,3.26
2018-12-26T14:05:48.920Z,3.24
2018-12-26T14:10:52.039Z,3.26
2018-12-26T14:15:54.053Z,3.27
2018-12-26T14:20:55.870Z,3.26
2018-12-26T14:25:57.891Z,3.26
2018-12-26T14:31:00.132Z,3.26
2018-12-26T14:36:03.330Z,3.24
2018-12-26T14:41:05.610Z,3.22
2018-12-26T14:46:07.482Z,3.22
2018-12-26T14:51:09.483Z,3.24
2018-12-26T14:56:12.349Z,3.22
2018-12-26T15:01:14.424Z,3.24
2018-12-26T15:06:16.419Z,3.25
2018-12-26T15:11:18.229Z,3.27
2018-12-26T15:16:20.420Z,3.24
2018-12-26T15:21:22.433Z,3.24
2018-12-26T15:26:24.457Z,3.25
2018-12-26T15:31:26.408Z,3.21
2018-12-26T15:36:28.415Z,3.21
2018-12-26T15:41:31.311Z,3.19
2018-12-26T15:46:33.368Z,3.20
2018-12-26T15:51:35.276Z,3.21
2018-12-26T15:56:37.368Z,3.20
2018-12-26T16:01:39.443Z,3.20
2018-12-26T16:06:41.443Z,3.21
2018-12-26T16:11:43.451Z,3.24
2018-12-26T16:16:45.358Z,3.24
2018-12-26T16:21:47.153Z,3.24
2018-12-26T16:26:49.093Z,3.26
2018-12-26T16:31:51.176Z,3.27
2018-12-26T16:36:52.970Z,3.31
2018-12-26T16:41:54.971Z,3.30
2018-12-26T16:46:56.966Z,3.34
2018-12-26T16:51:58.971Z,3.34
2018-12-26T16:57:00.965Z,3.36
2018-12-26T17:02:03.032Z,3.39
2018-12-26T17:07:05.030Z,3.39
2018-12-26T17:12:07.037Z,3.40
2018-12-26T17:17:09.046Z,3.45
2018-12-26T17:22:11.125Z,3.45
2018-12-26T17:27:13.183Z,3.48
2018-12-26T17:32:15.260Z,3.50
2018-12-26T17:37:17.213Z,3.49
2018-12-26T17:42:18.955Z,3.50
2018-12-26T17:47:20.975Z,3.52
2018-12-26T17:52:22.981Z,3.52
2018-12-26T17:57:29.381Z,3.55
2018-12-26T18:02:39.438Z,3.54
2018-12-26T18:07:41.344Z,3.54
2018-12-26T18:12:43.245Z,3.57
2018-12-26T18:17:45.142Z,3.61
2018-12-26T18:22:47.047Z,3.59
2018-12-26T18:27:48.882Z,3.57
2018-12-26T18:32:50.851Z,3.57
2018-12-26T18:37:52.762Z,3.57
2018-12-26T18:42:54.657Z,3.60
2018-12-26T18:47:56.669Z,3.61
2018-12-26T18:52:58.569Z,3.60
2018-12-26T18:58:00.464Z,3.59
2018-12-26T19:03:02.553Z,3.62
2018-12-26T19:08:04.570Z,3.67
2018-12-26T19:13:06.834Z,3.64
2018-12-26T19:18:08.822Z,3.63
2018-12-26T19:23:10.731Z,3.65
2018-12-26T19:28:12.783Z,3.66
2018-12-26T19:33:14.885Z,3.69
2018-12-26T19:38:17.069Z,3.74
2018-12-26T19:43:18.977Z,3.72
2018-12-26T19:48:20.910Z,3.71
2018-12-26T19:53:22.981Z,3.73
2018-12-26T19:58:25.006Z,3.76
2018-12-26T20:03:26.961Z,3.78
2018-12-26T20:08:28.977Z,3.79
2018-12-26T20:13:30.959Z,3.78
2018-12-26T20:18:32.942Z,3.78
2018-12-26T20:23:34.947Z,3.81
2018-12-26T20:28:36.867Z,3.83
2018-12-26T20:33:38.898Z,3.82
2018-12-26T20:38:41.037Z,3.81
2018-12-26T20:43:43.048Z,3.83
2018-12-26T20:48:45.050Z,3.84
2018-12-26T20:53:46.944Z,3.85
2018-12-26T20:58:48.954Z,3.81
2018-12-26T21:03:52.070Z,3.80
2018-12-26T21:08:53.853Z,3.79
2018-12-26T21:13:56.537Z,3.77
2018-12-26T21:18:58.341Z,3.78
2018-12-26T21:24:00.351Z,3.79
2018-12-26T21:29:02.392Z,3.79
2018-12-26T21:34:04.347Z,3.85
2018-12-26T21:39:06.661Z,3.99
2018-12-26T21:44:08.567Z,4.07
2018-12-26T21:49:10.619Z,4.01
2018-12-26T21:54:12.643Z,3.97
2018-12-26T21:59:14.714Z,3.99
2018-12-26T22:04:16.767Z,4.16
2018-12-26T22:09:18.565Z,4.24
2018-12-26T22:14:20.763Z,4.26
2018-12-26T22:19:22.742Z,4.29
2018-12-26T22:24:24.766Z,4.37
2018-12-26T22:29:26.858Z,4.39
2018-12-26T22:34:28.766Z,4.45
2018-12-26T22:39:30.676Z,4.45
2018-12-26T22:44:32.582Z,4.46
2018-12-26T22:49:34.590Z,4.48
2018-12-26T22:54:36.641Z,4.44
2018-12-26T22:59:38.638Z,4.58
2018-12-26T23:04:40.750Z,4.53
2018-12-26T23:09:42.699Z,4.56
2018-12-26T23:14:44.702Z,4.57
2018-12-26T23:19:46.704Z,4.58
2018-12-26T23:24:48.600Z,4.55
2018-12-26T23:29:50.628Z,4.54
2018-12-26T23:34:52.696Z,4.56
2018-12-26T23:39:54.929Z,4.58
2018-12-26T23:44:56.933Z,4.55
2018-12-26T23:49:58.825Z,4.54
2018-12-26T23:55:00.746Z,4.56
